createdAt,value
2022-11-12T00:00:59.468Z,6.13
2022-11-12T00:03:46.831Z,5.78
2022-11-12T00:06:33.891Z,6.88
2022-11-12T00:09:22.263Z,6.05
2022-11-12T00:12:08.920Z,6.00
2022-11-12T00:14:56.034Z,5.90
2022-11-12T00:17:43.462Z,6.47
2022-11-12T00:20:30.421Z,6.25
2022-11-12T00:23:17.656Z,6.18
2022-11-12T00:26:06.243Z,6.70
2022-11-12T00:28:53.070Z,6.78
2022-11-12T00:31:40.318Z,7.13
2022-11-12T00:34:27.220Z,7.20
2022-11-12T00:37:14.071Z,7.28
2022-11-12T00:40:01.260Z,7.07
2022-11-12T00:42:51.688Z,7.18
2022-11-12T00:45:38.701Z,6.53
2022-11-12T00:48:25.949Z,6.78
2022-11-12T00:51:13.079Z,7.28
2022-11-12T00:54:00.509Z,6.07
2022-11-12T00:56:48.056Z,6.85
2022-11-12T00:59:36.325Z,6.38
2022-11-12T01:02:22.938Z,5.68
2022-11-12T01:05:10.353Z,6.60
2022-11-12T01:07:57.385Z,6.28
2022-11-12T01:10:44.240Z,6.40
2022-11-12T01:13:31.277Z,6.43
2022-11-12T01:16:23.600Z,7.28
2022-11-12T01:19:13.032Z,6.32
2022-11-12T01:21:59.654Z,6.15
2022-11-12T01:24:46.569Z,6.10
2022-11-12T01:27:34.838Z,5.82
2022-11-12T01:30:22.011Z,6.07
2022-11-12T01:33:09.972Z,6.63
2022-11-12T01:35:59.944Z,7.72
2022-11-12T01:38:48.168Z,7.25
2022-11-12T01:41:38.106Z,8.35
2022-11-12T01:44:27.524Z,8.63
2022-11-12T01:47:20.273Z,9.48
2022-11-12T01:50:17.813Z,9.52
2022-11-12T01:53:10.078Z,9.93
2022-11-12T01:55:57.739Z,10.27
2022-11-12T01:58:47.008Z,9.38
2022-11-12T02:01:33.812Z,9.73
2022-11-12T02:04:22.102Z,10.10
2022-11-12T02:07:11.778Z,9.65
2022-11-12T02:10:01.439Z,9.10
2022-11-12T02:13:06.289Z,9.20
2022-11-12T02:15:53.673Z,9.13
2022-11-12T02:18:40.312Z,9.27
2022-11-12T02:21:29.400Z,7.93
2022-11-12T02:24:37.800Z,9.38
2022-11-12T02:27:25.696Z,8.77
2022-11-12T02:30:13.411Z,8.25
2022-11-12T02:33:00.836Z,8.57
2022-11-12T02:35:47.717Z,7.43
2022-11-12T02:38:35.682Z,8.05
2022-11-12T02:41:23.148Z,7.82
2022-11-12T02:44:10.279Z,7.72
2022-11-12T02:46:57.271Z,9.07
2022-11-12T02:49:44.598Z,8.07
2022-11-12T02:52:32.304Z,7.72
2022-11-12T02:55:21.089Z,8.63
2022-11-12T02:58:07.999Z,7.57
2022-11-12T03:00:55.427Z,6.78
2022-11-12T03:03:42.474Z,6.72
2022-11-12T03:06:29.869Z,7.65
2022-11-12T03:09:16.656Z,7.20
2022-11-12T03:12:05.199Z,6.10
2022-11-12T03:14:52.494Z,6.95
2022-11-12T03:17:39.585Z,6.70
2022-11-12T03:20:27.062Z,6.47
2022-11-12T03:23:14.407Z,6.03
2022-11-12T03:26:04.752Z,6.10
2022-11-12T03:28:53.677Z,6.07
2022-11-12T03:31:40.948Z,6.07
2022-11-12T03:34:28.062Z,5.82
2022-11-12T03:37:15.053Z,5.43
2022-11-12T03:40:02.101Z,5.13
2022-11-12T03:42:50.813Z,5.18
2022-11-12T03:45:39.068Z,4.70
2022-11-12T03:48:26.396Z,4.60
2022-11-12T03:51:16.406Z,4.18
2022-11-12T03:54:03.326Z,4.60
2022-11-12T03:56:50.092Z,4.35
2022-11-12T03:59:37.162Z,4.50
2022-11-12T04:02:26.668Z,4.85
2022-11-12T04:05:31.216Z,4.47
2022-11-12T04:08:39.283Z,4.70
2022-11-12T04:11:26.531Z,5.05
2022-11-12T04:14:13.272Z,4.85
2022-11-12T04:17:17.738Z,5.07
2022-11-12T04:20:36.347Z,5.90
2022-11-12T04:23:23.334Z,4.72
2022-11-12T04:26:24.444Z,5.03
2022-11-12T04:29:28.835Z,5.00
2022-11-12T04:32:16.025Z,4.80
2022-11-12T04:35:03.161Z,4.97
2022-11-12T04:37:52.283Z,5.40
2022-11-12T04:40:56.524Z,4.47
2022-11-12T04:44:12.722Z,4.93
2022-11-12T04:47:00.085Z,4.75
2022-11-12T04:49:47.150Z,9.40
2022-11-12T04:52:34.027Z,14.45
2022-11-12T04:55:22.836Z,5.65
2022-11-12T04:58:10.094Z,4.80
2022-11-12T05:00:57.422Z,5.50
2022-11-12T05:03:44.178Z,5.05
2022-11-12T05:06:49.072Z,4.53
2022-11-12T05:09:36.437Z,4.72
2022-11-12T05:12:24.719Z,4.35
2022-11-12T05:15:12.725Z,4.63
2022-11-12T05:17:59.852Z,4.20
2022-11-12T05:20:46.902Z,4.15
2022-11-12T05:23:34.008Z,4.10
2022-11-12T05:26:20.736Z,6.95
2022-11-12T05:29:09.305Z,10.15
2022-11-12T05:31:56.733Z,4.70
2022-11-12T05:34:43.953Z,3.85
2022-11-12T05:37:30.883Z,3.88
2022-11-12T05:40:17.740Z,3.63
2022-11-12T05:43:04.385Z,3.70
2022-11-12T05:45:52.672Z,4.07
2022-11-12T05:48:39.346Z,5.03
2022-11-12T05:51:26.234Z,4.28
2022-11-12T05:54:13.605Z,4.15
2022-11-12T05:57:00.841Z,5.03
2022-11-12T05:59:47.734Z,5.03
2022-11-12T06:02:36.096Z,4.78
2022-11-12T06:05:22.997Z,5.00
2022-11-12T06:08:09.472Z,5.03
2022-11-12T06:10:56.920Z,5.07
2022-11-12T06:13:44.046Z,5.07
2022-11-12T06:16:32.746Z,5.10
2022-11-12T06:19:20.862Z,5.50
2022-11-12T06:22:07.943Z,5.05
2022-11-12T06:24:54.954Z,5.75
2022-11-12T06:27:42.359Z,5.07
2022-11-12T06:30:29.527Z,5.60
2022-11-12T06:33:16.312Z,5.97
2022-11-12T06:36:07.145Z,5.45
2022-11-12T06:38:53.674Z,5.70
2022-11-12T06:41:40.753Z,5.78
2022-11-12T06:44:27.784Z,6.15
2022-11-12T06:47:14.971Z,5.68
2022-11-12T06:50:02.523Z,5.60
2022-11-12T06:52:50.780Z,5.70
2022-11-12T06:55:37.846Z,5.85
2022-11-12T06:58:25.290Z,6.50
2022-11-12T07:01:15.540Z,6.03
2022-11-12T07:04:02.739Z,6.30
2022-11-12T07:06:49.883Z,6.20
2022-11-12T07:09:38.115Z,6.13
2022-11-12T07:12:24.814Z,6.65
2022-11-12T07:15:12.373Z,6.70
2022-11-12T07:17:59.367Z,7.32
2022-11-12T07:20:46.260Z,6.53
2022-11-12T07:23:35.427Z,6.45
2022-11-12T07:26:25.505Z,6.53
2022-11-12T07:29:14.753Z,7.05
2022-11-12T07:32:07.733Z,6.70
2022-11-12T07:34:54.894Z,6.65
2022-11-12T07:37:41.899Z,6.47
2022-11-12T07:40:28.879Z,6.05
2022-11-12T07:43:16.960Z,6.63
2022-11-12T07:46:10.284Z,7.00
2022-11-12T07:48:57.990Z,6.78
2022-11-12T07:51:45.075Z,6.15
2022-11-12T07:54:32.098Z,11.27
2022-11-12T07:57:18.958Z,6.47
2022-11-12T08:00:09.211Z,6.30
2022-11-12T08:02:56.322Z,6.72
2022-11-12T08:05:43.695Z,6.53
2022-11-12T08:08:31.319Z,5.80
2022-11-12T08:11:18.366Z,6.03
2022-11-12T08:14:06.601Z,6.45
2022-11-12T08:16:54.638Z,6.28
2022-11-12T08:19:41.525Z,5.90
2022-11-12T08:22:28.729Z,7.72
2022-11-12T08:25:15.725Z,6.05
2022-11-12T08:28:02.591Z,5.05
2022-11-12T08:30:49.469Z,5.90
2022-11-12T08:33:38.886Z,6.35
2022-11-12T08:36:25.655Z,6.15
2022-11-12T08:39:12.271Z,6.13
2022-11-12T08:41:59.101Z,6.10
2022-11-12T08:44:46.199Z,6.30
2022-11-12T08:47:33.597Z,5.40
2022-11-12T08:50:21.860Z,5.45
2022-11-12T08:53:11.196Z,5.25
2022-11-12T08:55:58.561Z,4.70
2022-11-12T08:58:45.687Z,5.05
2022-11-12T09:01:33.132Z,4.85
2022-11-12T09:04:19.954Z,4.97
2022-11-12T09:07:09.621Z,6.85
2022-11-12T09:09:56.818Z,5.15
2022-11-12T09:12:43.702Z,4.95
2022-11-12T09:15:39.424Z,4.90
2022-11-12T09:18:26.687Z,5.10
2022-11-12T09:21:13.924Z,5.30
2022-11-12T09:24:02.393Z,5.10
2022-11-12T09:26:49.133Z,5.13
2022-11-12T09:29:36.291Z,4.72
2022-11-12T09:32:23.412Z,4.75
2022-11-12T09:35:10.536Z,5.05
2022-11-12T09:37:59.922Z,5.03
2022-11-12T09:41:24.034Z,4.53
2022-11-12T09:44:14.017Z,4.18
2022-11-12T09:47:04.359Z,4.70
2022-11-12T09:49:58.939Z,29.38
2022-11-12T09:52:49.961Z,4.53
2022-11-12T09:55:41.617Z,4.05
2022-11-12T09:58:29.969Z,4.13
2022-11-12T10:01:23.117Z,4.50
2022-11-12T10:04:34.218Z,7.88
2022-11-12T10:07:36.354Z,3.90
2022-11-12T10:10:35.685Z,4.22
2022-11-12T10:13:39.492Z,4.00
2022-11-12T10:16:48.991Z,3.75
2022-11-12T10:19:57.555Z,3.78
2022-11-12T10:23:12.198Z,4.88
2022-11-12T10:26:02.459Z,4.32
2022-11-12T10:28:56.909Z,4.22
2022-11-12T10:31:44.057Z,4.05
2022-11-12T10:34:32.200Z,4.30
2022-11-12T10:37:24.946Z,3.70
2022-11-12T10:40:32.716Z,4.20
2022-11-12T10:43:25.622Z,4.07
2022-11-12T10:46:21.692Z,3.58
2022-11-12T10:49:24.330Z,10.13
2022-11-12T10:52:24.040Z,3.95
2022-11-12T10:55:19.493Z,3.85
2022-11-12T10:58:20.548Z,5.43
2022-11-12T11:01:15.358Z,6.63
2022-11-12T11:04:04.417Z,4.25
2022-11-12T11:07:01.118Z,4.45
2022-11-12T11:09:54.847Z,4.38
2022-11-12T11:12:41.851Z,3.85
2022-11-12T11:15:29.223Z,3.60
2022-11-12T11:18:16.342Z,4.00
2022-11-12T11:21:17.880Z,3.83
2022-11-12T11:24:23.893Z,3.75
2022-11-12T11:27:27.566Z,3.28
2022-11-12T11:30:19.207Z,4.05
2022-11-12T11:33:33.011Z,4.68
2022-11-12T11:36:30.963Z,4.72
2022-11-12T11:39:26.593Z,14.63
2022-11-12T11:42:41.746Z,4.60
2022-11-12T11:45:37.211Z,4.18
2022-11-12T11:48:34.416Z,3.97
2022-11-12T11:51:38.543Z,4.40
2022-11-12T11:54:53.439Z,4.68
2022-11-12T11:57:57.034Z,3.92
2022-11-12T12:00:54.021Z,4.30
2022-11-12T12:03:59.699Z,4.22
2022-11-12T12:09:58.377Z,3.90
2022-11-12T12:13:00.551Z,9.75
2022-11-12T12:16:12.623Z,12.38
2022-11-12T12:19:10.028Z,10.35
2022-11-12T12:22:01.959Z,10.95
2022-11-12T12:24:52.600Z,6.72
2022-11-12T12:27:50.851Z,8.63
2022-11-12T12:30:42.600Z,8.32
2022-11-12T12:33:34.780Z,5.50
2022-11-12T12:39:57.534Z,9.40
2022-11-12T12:42:50.313Z,4.38
2022-11-12T12:45:42.588Z,4.15
2022-11-12T12:48:34.438Z,4.68
2022-11-12T12:51:22.058Z,4.50
2022-11-12T12:54:57.434Z,4.68
2022-11-12T12:57:44.178Z,4.30
2022-11-12T13:00:38.904Z,4.15
2022-11-12T13:03:56.177Z,4.63
2022-11-12T13:06:54.153Z,4.40
2022-11-12T13:09:40.904Z,5.20
2022-11-12T13:13:06.754Z,5.15
2022-11-12T13:15:55.633Z,4.47
2022-11-12T13:19:04.568Z,10.77
2022-11-12T13:22:49.622Z,4.30
2022-11-12T13:25:36.927Z,4.82
2022-11-12T13:28:25.892Z,4.30
2022-11-12T13:31:30.375Z,4.82
2022-11-12T13:34:23.268Z,4.90
2022-11-12T13:37:21.542Z,4.63
2022-11-12T13:40:15.483Z,4.70
2022-11-12T13:43:11.992Z,4.57
2022-11-12T13:46:25.632Z,4.60
2022-11-12T13:49:15.625Z,4.75
2022-11-12T13:52:02.798Z,4.63
2022-11-12T13:55:03.401Z,4.50
2022-11-12T13:57:51.722Z,4.63
2022-11-12T14:00:38.927Z,4.13
2022-11-12T14:03:31.154Z,4.50
2022-11-12T14:06:23.526Z,5.75
2022-11-12T14:09:53.602Z,4.20
2022-11-12T14:13:12.619Z,11.73
2022-11-12T14:16:17.045Z,5.22
2022-11-12T14:19:39.009Z,4.57
2022-11-12T14:22:26.028Z,4.53
2022-11-12T14:25:19.561Z,7.70
2022-11-12T14:28:07.020Z,9.70
2022-11-12T14:30:55.315Z,9.15
2022-11-12T14:33:42.120Z,8.32
2022-11-12T14:36:30.608Z,8.35
2022-11-12T14:39:17.888Z,7.30
2022-11-12T14:42:04.955Z,7.22
2022-11-12T14:44:51.780Z,6.90
2022-11-12T14:47:38.705Z,6.50
2022-11-12T14:50:31.718Z,6.78
2022-11-12T14:53:28.592Z,5.88
2022-11-12T14:56:35.162Z,7.15
2022-11-12T14:59:22.849Z,6.65
2022-11-12T15:02:31.358Z,6.30
2022-11-12T15:05:23.465Z,6.70
2022-11-12T15:08:13.260Z,6.20
2022-11-12T15:11:24.624Z,6.32
2022-11-12T15:14:22.485Z,6.32
2022-11-12T15:17:29.411Z,6.70
2022-11-12T15:20:19.123Z,26.55
2022-11-12T15:23:06.649Z,18.90
2022-11-12T15:26:01.240Z,8.15
2022-11-12T15:29:00.454Z,7.30
2022-11-12T15:31:50.332Z,7.25
2022-11-12T15:34:49.514Z,7.85
2022-11-12T15:37:43.577Z,6.85
2022-11-12T15:40:30.988Z,6.80
2022-11-12T15:43:23.225Z,6.70
2022-11-12T15:46:15.601Z,7.65
2022-11-12T15:49:04.065Z,9.10
2022-11-12T15:51:50.771Z,7.75
2022-11-12T15:54:41.053Z,7.40
2022-11-12T15:57:33.540Z,8.20
2022-11-12T16:00:25.188Z,9.07
2022-11-12T16:03:16.337Z,12.02
2022-11-12T16:06:08.662Z,11.98
2022-11-12T16:08:55.748Z,11.25
2022-11-12T16:11:42.822Z,8.57
2022-11-12T16:14:30.122Z,8.90
2022-11-12T16:17:19.760Z,16.08
2022-11-12T16:20:15.361Z,17.50
2022-11-12T16:23:03.124Z,13.90
2022-11-12T16:25:50.235Z,14.10
2022-11-12T16:28:37.564Z,17.73
2022-11-12T16:31:24.308Z,17.25
2022-11-12T16:34:13.120Z,19.42
2022-11-12T16:37:00.357Z,18.77
2022-11-12T16:39:47.213Z,17.77
2022-11-12T16:42:34.437Z,16.52
2022-11-12T16:45:23.882Z,13.43
2022-11-12T16:48:16.673Z,13.05
2022-11-12T16:51:05.067Z,12.20
2022-11-12T16:53:52.343Z,14.07
2022-11-12T16:56:39.533Z,15.07
2022-11-12T16:59:26.443Z,12.70
2022-11-12T17:02:16.358Z,14.23
2022-11-12T17:05:04.472Z,13.38
2022-11-12T17:07:59.355Z,13.48
2022-11-12T17:10:46.498Z,14.27
2022-11-12T17:13:33.335Z,15.05
2022-11-12T17:16:20.302Z,13.20
2022-11-12T17:19:07.235Z,12.07
2022-11-12T17:21:54.220Z,12.35
2022-11-12T17:24:42.237Z,12.30
2022-11-12T17:27:29.011Z,12.60
2022-11-12T17:30:16.345Z,12.45
2022-11-12T17:33:03.369Z,9.82
2022-11-12T17:35:50.389Z,8.88
2022-11-12T17:38:37.721Z,11.00
2022-11-12T17:41:28.571Z,11.00
2022-11-12T17:44:18.126Z,12.45
2022-11-12T17:47:05.508Z,17.27
2022-11-12T17:49:52.574Z,12.77
2022-11-12T17:52:39.809Z,11.88
2022-11-12T17:55:26.843Z,10.65
2022-11-12T17:58:14.970Z,10.88
2022-11-12T18:01:10.569Z,10.20
2022-11-12T18:03:59.115Z,11.27
2022-11-12T18:06:46.389Z,11.88
2022-11-12T18:09:33.370Z,11.02
2022-11-12T18:12:20.357Z,10.70
2022-11-12T18:15:10.031Z,10.20
2022-11-12T18:17:56.920Z,11.88
2022-11-12T18:20:44.429Z,11.43
2022-11-12T18:23:31.619Z,11.63
2022-11-12T18:26:19.769Z,10.65
2022-11-12T18:29:07.405Z,11.77
2022-11-12T18:31:55.960Z,10.73
2022-11-12T18:34:45.304Z,17.13
2022-11-12T18:37:32.291Z,12.27
2022-11-12T18:40:20.503Z,11.88
2022-11-12T18:43:07.443Z,11.40
2022-11-12T18:45:59.227Z,10.52
2022-11-12T18:48:47.433Z,10.52
2022-11-12T18:51:34.460Z,12.05
2022-11-12T18:54:21.213Z,11.48
2022-11-12T18:57:08.183Z,10.52
2022-11-12T18:59:55.233Z,11.90
2022-11-12T19:02:43.115Z,11.15
2022-11-12T19:05:32.015Z,11.70
2022-11-12T19:08:19.674Z,11.80
2022-11-12T19:11:10.027Z,13.13
2022-11-12T19:13:57.179Z,10.88
2022-11-12T19:16:44.862Z,12.90
2022-11-12T19:19:31.670Z,13.88
2022-11-12T19:22:19.859Z,13.45
2022-11-12T19:25:07.895Z,14.13
2022-11-12T19:27:54.912Z,12.93
2022-11-12T19:30:42.034Z,13.85
2022-11-12T19:33:29.111Z,12.50
2022-11-12T19:36:18.462Z,12.00
2022-11-12T19:39:07.128Z,11.43
2022-11-12T19:41:53.768Z,11.85
2022-11-12T19:44:40.840Z,10.90
2022-11-12T19:47:27.649Z,10.90
2022-11-12T19:50:14.282Z,12.00
2022-11-12T19:53:01.242Z,11.68
2022-11-12T19:55:49.467Z,11.15
2022-11-12T19:58:36.172Z,11.75
2022-11-12T20:01:23.274Z,12.43
2022-11-12T20:04:11.828Z,12.55
2022-11-12T20:06:58.897Z,13.80
2022-11-12T20:09:45.867Z,12.02
2022-11-12T20:12:34.400Z,12.60
2022-11-12T20:15:21.526Z,12.43
2022-11-12T20:18:08.344Z,12.63
2022-11-12T20:20:57.550Z,11.30
2022-11-12T20:23:45.542Z,11.93
2022-11-12T20:26:32.695Z,11.80
2022-11-12T20:29:21.280Z,12.35
2022-11-12T20:32:08.223Z,13.40
2022-11-12T20:34:55.305Z,12.85
2022-11-12T20:37:42.402Z,13.73
2022-11-12T20:40:29.200Z,14.45
2022-11-12T20:43:16.546Z,28.92
2022-11-12T20:46:04.653Z,16.30
2022-11-12T20:48:53.907Z,13.93
2022-11-12T20:51:40.817Z,13.65
2022-11-12T20:54:27.568Z,14.38
2022-11-12T20:57:14.707Z,13.65
2022-11-12T21:00:01.379Z,13.68
2022-11-12T21:02:49.762Z,13.60
2022-11-12T21:05:36.558Z,13.50
2022-11-12T21:08:23.203Z,13.55
2022-11-12T21:11:13.851Z,12.75
2022-11-12T21:14:01.481Z,13.13
2022-11-12T21:16:48.678Z,13.18
2022-11-12T21:19:37.098Z,13.10
2022-11-12T21:22:23.829Z,13.57
2022-11-12T21:25:10.902Z,12.85
2022-11-12T21:27:59.259Z,13.68
2022-11-12T21:30:45.934Z,12.45
2022-11-12T21:33:32.558Z,12.13
2022-11-12T21:36:21.507Z,12.68
2022-11-12T21:39:09.992Z,11.93
2022-11-12T21:41:56.981Z,11.50
2022-11-12T21:44:44.039Z,22.10
2022-11-12T21:47:30.945Z,13.60
2022-11-12T21:50:18.481Z,12.63
2022-11-12T21:53:06.862Z,10.88
2022-11-12T21:55:53.792Z,23.67
2022-11-12T21:58:40.840Z,15.65
2022-11-12T22:01:29.927Z,12.63
2022-11-12T22:04:18.497Z,11.43
2022-11-12T22:07:05.956Z,12.00
2022-11-12T22:09:56.920Z,12.93
2022-11-12T22:13:04.882Z,11.20
2022-11-12T22:15:52.742Z,15.75
2022-11-12T22:18:40.469Z,19.70
2022-11-12T22:21:30.695Z,14.02
2022-11-12T22:24:19.912Z,12.32
2022-11-12T22:27:08.094Z,12.50
2022-11-12T22:29:54.940Z,14.07
2022-11-12T22:32:41.802Z,21.15
2022-11-12T22:35:28.584Z,29.38
2022-11-12T22:38:15.655Z,42.08
2022-11-12T22:41:04.609Z,42.50
2022-11-12T22:43:54.679Z,36.92
2022-11-12T22:46:41.584Z,32.72
2022-11-12T22:49:28.465Z,30.38
2022-11-12T22:52:15.280Z,25.55
2022-11-12T22:55:02.263Z,22.65
2022-11-12T22:57:49.353Z,21.00
2022-11-12T23:00:37.417Z,22.83
2022-11-12T23:03:24.377Z,21.15
2022-11-12T23:06:11.921Z,19.45
2022-11-12T23:09:00.629Z,15.02
2022-11-12T23:11:47.567Z,14.05
2022-11-12T23:14:34.801Z,13.57
2022-11-12T23:17:22.862Z,13.13
2022-11-12T23:20:10.669Z,14.82
2022-11-12T23:22:57.865Z,12.38
2022-11-12T23:25:45.530Z,11.25
2022-11-12T23:28:32.616Z,10.75
2022-11-12T23:31:22.149Z,11.98
2022-11-12T23:34:12.840Z,11.05
2022-11-12T23:36:59.782Z,11.23
2022-11-12T23:39:46.584Z,11.02
2022-11-12T23:42:33.443Z,11.55
2022-11-12T23:45:20.636Z,10.43
2022-11-12T23:48:07.997Z,10.52
2022-11-12T23:51:04.428Z,10.13
2022-11-12T23:53:51.553Z,11.25
2022-11-12T23:56:38.588Z,12.60
2022-11-12T23:59:25.731Z,13.88
